createdAt,value
2018-09-21T00:00:32.774Z,12.07
2018-09-21T00:03:01.232Z,9.80
2018-09-21T00:05:29.757Z,7.17
2018-09-21T00:07:58.205Z,8.57
2018-09-21T00:10:26.741Z,12.83
2018-09-21T00:12:55.229Z,11.10
2018-09-21T00:15:23.681Z,7.70
2018-09-21T00:17:52.187Z,9.20
2018-09-21T00:20:20.674Z,7.63
2018-09-21T00:22:49.234Z,7.93
2018-09-21T00:25:17.692Z,11.30
2018-09-21T00:27:46.277Z,7.97
2018-09-21T00:30:14.755Z,10.63
2018-09-21T00:32:43.200Z,8.70
2018-09-21T00:35:11.684Z,9.87
2018-09-21T00:37:40.718Z,9.50
2018-09-21T00:40:09.285Z,8.77
2018-09-21T00:42:37.774Z,6.30
2018-09-21T00:45:06.346Z,9.30
2018-09-21T00:47:34.837Z,7.70
2018-09-21T00:50:03.336Z,9.17
2018-09-21T00:52:31.787Z,7.30
2018-09-21T00:55:00.237Z,10.23
2018-09-21T00:57:28.739Z,8.30
2018-09-21T00:59:57.172Z,7.17
2018-09-21T01:02:25.602Z,6.17
2018-09-21T01:04:54.088Z,8.80
2018-09-21T01:07:22.605Z,8.60
2018-09-21T01:09:51.080Z,9.00
2018-09-21T01:12:20.478Z,11.80
2018-09-21T01:14:48.944Z,9.87
2018-09-21T01:17:17.408Z,10.60
2018-09-21T01:19:45.949Z,9.37
2018-09-21T01:22:14.437Z,6.80
2018-09-21T01:24:42.909Z,11.03
2018-09-21T01:27:14.477Z,10.47
2018-09-21T01:29:43.249Z,8.37
2018-09-21T01:32:11.795Z,11.03
2018-09-21T01:34:40.325Z,8.70
2018-09-21T01:37:08.892Z,9.23
2018-09-21T01:39:37.347Z,13.43
2018-09-21T01:42:05.845Z,11.90
2018-09-21T01:44:34.340Z,7.37
2018-09-21T01:47:02.781Z,6.87
2018-09-21T01:49:31.251Z,7.63
2018-09-21T01:52:00.722Z,11.43
2018-09-21T01:54:29.221Z,10.27
2018-09-21T01:56:57.671Z,9.33
2018-09-21T01:59:26.188Z,8.50
2018-09-21T02:01:54.660Z,10.73
2018-09-21T02:04:40.580Z,8.67
2018-09-21T02:07:10.918Z,11.90
2018-09-21T02:09:40.052Z,5.20
2018-09-21T02:12:08.432Z,7.10
2018-09-21T02:14:36.912Z,7.83
2018-09-21T02:17:05.407Z,12.63
2018-09-21T02:19:33.961Z,9.53
2018-09-21T02:22:02.433Z,9.27
2018-09-21T02:24:30.920Z,8.13
2018-09-21T02:26:59.389Z,12.40
2018-09-21T02:29:27.894Z,8.67
2018-09-21T02:31:56.482Z,7.33
2018-09-21T02:34:25.170Z,9.57
2018-09-21T02:36:54.006Z,10.20
2018-09-21T02:39:22.666Z,9.87
2018-09-21T02:41:51.568Z,10.03
2018-09-21T02:44:20.310Z,10.00
2018-09-21T02:46:49.478Z,9.33
2018-09-21T02:49:18.278Z,10.27
2018-09-21T02:51:47.328Z,11.13
2018-09-21T02:54:16.360Z,9.60
2018-09-21T02:56:45.177Z,9.00
2018-09-21T02:59:14.041Z,7.60
2018-09-21T03:01:42.582Z,10.77
2018-09-21T03:04:11.999Z,8.43
2018-09-21T03:06:40.855Z,9.93
2018-09-21T03:09:10.443Z,7.33
2018-09-21T03:11:39.212Z,9.03
2018-09-21T03:14:08.472Z,6.87
2018-09-21T03:16:37.078Z,10.37
2018-09-21T03:19:05.892Z,9.83
2018-09-21T03:21:34.758Z,7.60
2018-09-21T03:24:03.803Z,6.50
2018-09-21T03:26:32.470Z,9.93
2018-09-21T03:29:01.985Z,6.97
2018-09-21T03:31:30.629Z,11.03
2018-09-21T03:33:59.287Z,7.67
2018-09-21T03:36:28.080Z,8.17
2018-09-21T03:38:56.904Z,8.13
2018-09-21T03:41:25.800Z,7.60
2018-09-21T03:43:54.728Z,10.50
2018-09-21T03:46:23.205Z,7.77
2018-09-21T03:48:51.725Z,7.70
2018-09-21T03:51:20.253Z,9.40
2018-09-21T03:53:48.769Z,9.43
2018-09-21T03:56:17.200Z,9.93
2018-09-21T03:58:45.657Z,10.27
2018-09-21T04:01:14.175Z,10.80
2018-09-21T04:03:42.573Z,9.33
2018-09-21T04:06:11.011Z,9.37
2018-09-21T04:08:39.458Z,8.87
2018-09-21T04:11:07.910Z,8.07
2018-09-21T04:13:36.383Z,9.53
2018-09-21T04:16:04.835Z,7.97
2018-09-21T04:18:33.309Z,8.47
2018-09-21T04:21:01.744Z,9.13
2018-09-21T04:23:30.210Z,7.97
2018-09-21T04:25:58.660Z,9.73
2018-09-21T04:28:27.187Z,12.23
2018-09-21T04:30:55.648Z,10.27
2018-09-21T04:33:24.162Z,8.97
2018-09-21T04:35:52.617Z,8.80
2018-09-21T04:38:21.095Z,9.60
2018-09-21T04:40:49.607Z,7.73
2018-09-21T04:43:18.079Z,9.80
2018-09-21T04:45:46.657Z,8.60
2018-09-21T04:48:15.104Z,11.70
2018-09-21T04:50:43.591Z,7.03
2018-09-21T04:53:12.068Z,10.77
2018-09-21T04:55:40.549Z,10.70
2018-09-21T04:58:08.999Z,10.73
2018-09-21T05:00:37.485Z,6.07
2018-09-21T05:03:06.025Z,6.03
2018-09-21T05:05:34.596Z,15.73
2018-09-21T05:08:03.193Z,10.63
2018-09-21T05:10:31.762Z,12.37
2018-09-21T05:13:00.237Z,9.67
2018-09-21T05:15:28.741Z,11.53
2018-09-21T05:17:57.269Z,11.40
2018-09-21T05:20:25.760Z,5.83
2018-09-21T05:22:54.275Z,6.07
2018-09-21T05:25:22.826Z,11.50
2018-09-21T05:27:51.314Z,8.63
2018-09-21T05:30:19.824Z,10.90
2018-09-21T05:32:48.316Z,8.90
2018-09-21T05:35:16.892Z,7.97
2018-09-21T05:37:46.713Z,9.43
2018-09-21T05:40:15.199Z,13.10
2018-09-21T05:42:43.795Z,9.90
2018-09-21T05:45:12.274Z,7.80
2018-09-21T05:47:40.785Z,7.17
2018-09-21T05:50:09.264Z,8.53
2018-09-21T05:52:37.738Z,7.77
2018-09-21T05:55:06.601Z,8.47
2018-09-21T05:57:35.052Z,6.27
2018-09-21T06:00:03.595Z,7.40
2018-09-21T06:02:32.139Z,6.57
2018-09-21T06:05:04.484Z,10.73
2018-09-21T06:07:33.550Z,10.27
2018-09-21T06:10:02.105Z,9.47
2018-09-21T06:12:30.581Z,7.67
2018-09-21T06:14:59.088Z,11.30
2018-09-21T06:17:27.604Z,9.23
2018-09-21T06:19:56.140Z,10.57
2018-09-21T06:22:24.940Z,9.43
2018-09-21T06:24:53.526Z,8.57
2018-09-21T06:27:22.043Z,11.40
2018-09-21T06:29:50.553Z,8.60
2018-09-21T06:32:19.049Z,13.83
2018-09-21T06:34:47.557Z,9.50
2018-09-21T06:37:16.140Z,9.57
2018-09-21T06:39:44.740Z,9.70
2018-09-21T06:42:13.322Z,8.57
2018-09-21T06:44:42.420Z,8.33
2018-09-21T06:47:10.908Z,7.40
2018-09-21T06:49:40.514Z,7.43
2018-09-21T06:52:09.141Z,9.20
2018-09-21T06:54:37.689Z,9.47
2018-09-21T06:57:06.277Z,7.73
2018-09-21T06:59:34.905Z,12.00
2018-09-21T07:02:03.428Z,11.90
2018-09-21T07:04:32.008Z,13.70
2018-09-21T07:07:00.565Z,16.20
2018-09-21T07:09:29.104Z,10.60
2018-09-21T07:11:57.568Z,13.27
2018-09-21T07:14:26.156Z,11.40
2018-09-21T07:16:54.671Z,12.70
2018-09-21T07:19:23.162Z,15.50
2018-09-21T07:21:51.705Z,16.63
2018-09-21T07:24:20.208Z,17.07
2018-09-21T07:26:48.695Z,17.90
2018-09-21T07:29:17.280Z,12.63
2018-09-21T07:31:45.743Z,16.30
2018-09-21T07:34:14.286Z,16.30
2018-09-21T07:36:43.744Z,17.63
2018-09-21T07:39:12.240Z,15.90
2018-09-21T07:41:40.782Z,15.67
2018-09-21T07:44:09.383Z,12.87
2018-09-21T07:46:38.795Z,17.60
2018-09-21T07:49:07.334Z,13.30
2018-09-21T07:51:35.941Z,16.70
2018-09-21T07:54:04.499Z,16.90
2018-09-21T07:56:33.058Z,14.53
2018-09-21T07:59:01.607Z,14.17
2018-09-21T08:01:30.137Z,13.73
2018-09-21T08:03:58.638Z,12.73
2018-09-21T08:06:27.171Z,9.07
2018-09-21T08:08:55.668Z,13.97
2018-09-21T08:11:24.156Z,17.27
2018-09-21T08:13:52.678Z,17.67
2018-09-21T08:16:21.187Z,13.90
2018-09-21T08:18:49.785Z,8.73
2018-09-21T08:21:18.325Z,10.33
2018-09-21T08:23:47.054Z,13.43
2018-09-21T08:26:15.623Z,8.90
2018-09-21T08:28:44.123Z,10.20
2018-09-21T08:31:13.830Z,6.73
2018-09-21T08:33:49.333Z,6.63
2018-09-21T08:36:18.101Z,6.80
2018-09-21T08:38:46.680Z,9.00
2018-09-21T08:41:15.344Z,5.73
2018-09-21T08:43:43.934Z,8.57
2018-09-21T08:46:12.528Z,8.43
2018-09-21T08:48:41.122Z,5.53
2018-09-21T08:51:09.695Z,9.63
2018-09-21T08:53:38.203Z,6.23
2018-09-21T08:56:06.975Z,10.83
2018-09-21T08:58:35.525Z,9.17
2018-09-21T09:01:03.992Z,13.20
2018-09-21T09:03:32.599Z,4.67
2018-09-21T09:06:01.116Z,9.93
2018-09-21T09:08:29.654Z,7.60
2018-09-21T09:10:58.127Z,9.27
2018-09-21T09:13:26.637Z,6.13
2018-09-21T09:15:55.206Z,7.47
2018-09-21T09:18:36.339Z,8.30
2018-09-21T09:21:04.910Z,5.63
2018-09-21T09:23:34.287Z,7.80
2018-09-21T09:26:03.468Z,5.63
2018-09-21T09:28:31.973Z,13.23
2018-09-21T09:31:00.516Z,7.37
2018-09-21T09:33:29.065Z,9.97
2018-09-21T09:35:57.589Z,5.53
2018-09-21T09:38:27.070Z,7.27
2018-09-21T09:40:55.541Z,4.20
2018-09-21T09:43:24.131Z,10.97
2018-09-21T09:45:52.646Z,7.87
2018-09-21T09:48:21.258Z,6.63
2018-09-21T09:50:49.782Z,5.10
2018-09-21T09:53:18.488Z,7.90
2018-09-21T09:55:47.019Z,7.30
2018-09-21T09:58:15.514Z,6.83
2018-09-21T10:00:49.378Z,5.83
2018-09-21T10:03:17.885Z,8.97
2018-09-21T10:05:46.401Z,5.20
2018-09-21T10:08:14.996Z,9.23
2018-09-21T10:10:43.487Z,8.10
2018-09-21T10:13:11.982Z,11.20
2018-09-21T10:15:40.520Z,6.33
2018-09-21T10:18:09.238Z,8.23
2018-09-21T10:20:37.991Z,6.80
2018-09-21T10:23:06.517Z,4.37
2018-09-21T10:25:35.033Z,5.03
2018-09-21T10:28:03.994Z,4.37
2018-09-21T10:30:32.795Z,5.00
2018-09-21T10:33:01.337Z,12.80
2018-09-21T10:35:30.019Z,7.53
2018-09-21T10:37:58.432Z,7.13
2018-09-21T10:40:26.984Z,3.13
2018-09-21T10:42:55.543Z,3.73
2018-09-21T10:45:24.037Z,6.33
2018-09-21T10:47:52.949Z,4.50
2018-09-21T10:50:21.489Z,10.07
2018-09-21T10:52:50.652Z,3.77
2018-09-21T10:55:19.194Z,5.00
2018-09-21T10:57:47.702Z,3.47
2018-09-21T11:00:16.235Z,4.00
2018-09-21T11:02:44.799Z,2.63
2018-09-21T11:05:13.341Z,4.30
2018-09-21T11:07:41.845Z,5.53
2018-09-21T11:10:10.389Z,3.53
2018-09-21T11:12:38.895Z,8.27
2018-09-21T11:15:07.547Z,8.57
2018-09-21T11:17:36.146Z,8.90
2018-09-21T11:20:04.758Z,3.70
2018-09-21T11:22:33.296Z,5.37
2018-09-21T11:25:01.882Z,4.83
2018-09-21T11:27:30.503Z,5.77
2018-09-21T11:29:59.027Z,4.67
2018-09-21T11:32:27.551Z,4.07
2018-09-21T11:34:56.010Z,5.63
2018-09-21T11:37:24.516Z,3.33
2018-09-21T11:39:53.026Z,4.30
2018-09-21T11:42:21.533Z,2.33
2018-09-21T11:44:50.094Z,4.97
2018-09-21T11:47:18.686Z,6.17
2018-09-21T11:49:47.125Z,5.23
2018-09-21T11:52:15.684Z,5.60
2018-09-21T11:54:44.265Z,9.13
2018-09-21T11:57:12.846Z,10.10
2018-09-21T11:59:41.437Z,2.97
2018-09-21T12:02:09.990Z,2.23
2018-09-21T12:04:38.515Z,4.47
2018-09-21T12:07:07.103Z,4.20
2018-09-21T12:09:35.675Z,3.40
2018-09-21T12:12:04.182Z,3.60
2018-09-21T12:14:32.675Z,7.93
2018-09-21T12:17:01.273Z,4.17
2018-09-21T12:19:29.791Z,3.33
2018-09-21T12:21:58.365Z,5.53
2018-09-21T12:24:27.492Z,4.07
2018-09-21T12:26:55.946Z,4.73
2018-09-21T12:29:24.557Z,3.40
2018-09-21T12:31:53.087Z,4.77
2018-09-21T12:34:21.569Z,4.20
2018-09-21T12:36:50.175Z,2.23
2018-09-21T12:39:18.685Z,6.13
2018-09-21T12:41:47.179Z,2.20
2018-09-21T12:44:17.018Z,3.47
2018-09-21T12:46:45.580Z,2.77
2018-09-21T12:49:14.124Z,5.87
2018-09-21T12:51:42.673Z,6.00
2018-09-21T12:54:11.203Z,5.37
2018-09-21T12:56:39.748Z,6.27
2018-09-21T12:59:08.265Z,4.80
2018-09-21T13:01:36.779Z,3.93
2018-09-21T13:04:05.339Z,6.40
2018-09-21T13:06:33.852Z,4.77
2018-09-21T13:09:02.473Z,6.30
2018-09-21T13:11:30.984Z,3.87
2018-09-21T13:13:59.520Z,2.93
2018-09-21T13:16:28.044Z,3.17
2018-09-21T13:18:56.570Z,5.17
2018-09-21T13:21:25.100Z,4.80
2018-09-21T13:23:53.600Z,7.83
2018-09-21T13:26:22.116Z,5.00
2018-09-21T13:28:50.576Z,4.33
2018-09-21T13:31:19.203Z,4.43
2018-09-21T13:33:47.693Z,4.87
2018-09-21T13:36:16.193Z,4.70
2018-09-21T13:38:44.895Z,9.50
2018-09-21T13:41:13.405Z,3.17
2018-09-21T13:43:41.872Z,4.83
2018-09-21T13:46:11.029Z,7.30
2018-09-21T13:48:39.539Z,4.73
2018-09-21T13:51:08.084Z,6.70
2018-09-21T13:53:36.588Z,7.33
2018-09-21T13:56:05.104Z,4.43
2018-09-21T13:58:33.657Z,5.73
2018-09-21T14:01:02.157Z,5.17
2018-09-21T14:03:31.857Z,4.47
2018-09-21T14:06:05.033Z,6.27
2018-09-21T14:08:34.313Z,4.57
2018-09-21T14:11:02.857Z,4.00
2018-09-21T14:13:31.388Z,1.63
2018-09-21T14:15:59.879Z,4.47
2018-09-21T14:18:28.420Z,3.50
2018-09-21T14:20:56.926Z,5.10
2018-09-21T14:23:25.437Z,5.03
2018-09-21T14:25:54.024Z,7.20
2018-09-21T14:28:22.574Z,3.70
2018-09-21T14:30:51.075Z,3.63
2018-09-21T14:33:19.567Z,5.47
2018-09-21T14:35:48.173Z,3.77
2018-09-21T14:38:16.734Z,4.77
2018-09-21T14:40:45.344Z,6.92
2018-09-21T14:43:14.067Z,6.90
2018-09-21T14:45:42.673Z,3.87
2018-09-21T14:48:11.275Z,5.10
2018-09-21T14:50:39.856Z,5.13
2018-09-21T14:53:08.380Z,6.07
2018-09-21T14:55:36.868Z,7.93
2018-09-21T14:58:05.427Z,4.13
2018-09-21T15:00:34.002Z,3.53
2018-09-21T15:03:02.634Z,5.80
2018-09-21T15:05:31.190Z,16.97
2018-09-21T15:07:59.724Z,3.57
2018-09-21T15:10:28.265Z,3.93
2018-09-21T15:12:56.777Z,8.47
2018-09-21T15:15:25.336Z,6.63
2018-09-21T15:17:53.923Z,7.00
2018-09-21T15:20:22.503Z,5.30
2018-09-21T15:22:51.061Z,5.83
2018-09-21T15:25:19.626Z,5.23
2018-09-21T15:27:48.149Z,4.87
2018-09-21T15:30:16.665Z,3.53
2018-09-21T15:32:45.229Z,3.30
2018-09-21T15:35:13.767Z,3.00
2018-09-21T15:37:42.242Z,5.50
2018-09-21T15:40:10.741Z,7.30
2018-09-21T15:42:39.359Z,3.43
2018-09-21T15:45:07.989Z,6.43
2018-09-21T15:47:36.558Z,7.97
2018-09-21T15:50:05.194Z,3.77
2018-09-21T15:52:33.753Z,6.87
2018-09-21T15:55:02.325Z,5.83
2018-09-21T15:57:30.881Z,6.00
2018-09-21T15:59:59.497Z,5.07
2018-09-21T16:02:28.018Z,2.90
2018-09-21T16:04:56.514Z,4.80
2018-09-21T16:07:25.057Z,7.17
2018-09-21T16:09:53.664Z,4.70
2018-09-21T16:12:22.202Z,5.70
2018-09-21T16:14:50.709Z,7.63
2018-09-21T16:17:19.229Z,4.30
2018-09-21T16:19:47.799Z,7.47
2018-09-21T16:22:16.291Z,5.07
2018-09-21T16:24:44.854Z,8.37
2018-09-21T16:27:13.560Z,3.07
2018-09-21T16:29:42.082Z,2.87
2018-09-21T16:32:10.591Z,4.23
2018-09-21T16:34:39.141Z,5.37
2018-09-21T16:37:07.628Z,4.07
2018-09-21T16:39:36.080Z,9.73
2018-09-21T16:42:04.598Z,5.70
2018-09-21T16:44:33.124Z,7.33
2018-09-21T16:47:01.569Z,5.77
2018-09-21T16:49:30.431Z,9.47
2018-09-21T16:51:58.925Z,6.23
2018-09-21T16:54:27.485Z,3.17
2018-09-21T16:56:56.004Z,6.67
2018-09-21T16:59:24.524Z,4.40
2018-09-21T17:01:52.990Z,3.23
2018-09-21T17:04:21.510Z,7.00
2018-09-21T17:06:50.279Z,3.43
2018-09-21T17:09:18.814Z,2.77
2018-09-21T17:11:47.589Z,6.07
2018-09-21T17:14:16.097Z,5.23
2018-09-21T17:16:44.661Z,5.43
2018-09-21T17:19:13.271Z,4.03
2018-09-21T17:21:41.833Z,7.30
2018-09-21T17:24:10.371Z,7.53
2018-09-21T17:26:38.961Z,4.77
2018-09-21T17:29:07.468Z,5.53
2018-09-21T17:31:35.927Z,6.13
2018-09-21T17:34:04.469Z,10.23
2018-09-21T17:36:32.999Z,5.07
2018-09-21T17:39:01.545Z,7.57
2018-09-21T17:41:30.020Z,7.70
2018-09-21T17:43:58.505Z,7.73
2018-09-21T17:46:27.049Z,5.47
2018-09-21T17:48:55.585Z,9.53
2018-09-21T17:51:24.167Z,3.53
2018-09-21T17:53:52.673Z,5.17
2018-09-21T17:56:21.201Z,6.17
2018-09-21T17:58:49.726Z,6.50
2018-09-21T18:01:18.298Z,4.47
2018-09-21T18:03:46.954Z,6.80
2018-09-21T18:06:15.518Z,7.40
2018-09-21T18:08:44.002Z,9.93
2018-09-21T18:11:12.533Z,8.07
2018-09-21T18:13:41.079Z,10.67
2018-09-21T18:16:09.776Z,5.03
2018-09-21T18:18:38.199Z,9.63
2018-09-21T18:21:06.845Z,7.97
2018-09-21T18:23:35.342Z,7.77
2018-09-21T18:26:04.009Z,6.53
2018-09-21T18:28:32.496Z,8.47
2018-09-21T18:31:01.042Z,5.13
2018-09-21T18:33:29.558Z,10.97
2018-09-21T18:35:58.103Z,12.53
2018-09-21T18:38:26.664Z,7.67
2018-09-21T18:40:55.265Z,9.70
2018-09-21T18:43:23.738Z,6.30
2018-09-21T18:45:52.279Z,4.37
2018-09-21T18:48:20.817Z,9.57
2018-09-21T18:50:50.294Z,5.83
2018-09-21T18:53:18.816Z,9.27
2018-09-21T18:55:47.315Z,7.20
2018-09-21T18:58:15.833Z,9.60
2018-09-21T19:00:44.578Z,6.70
2018-09-21T19:03:13.410Z,5.67
2018-09-21T19:05:41.950Z,9.80
2018-09-21T19:08:10.676Z,11.27
2018-09-21T19:10:39.480Z,11.47
2018-09-21T19:13:09.185Z,6.60
2018-09-21T19:15:37.837Z,10.37
2018-09-21T19:18:06.786Z,8.43
2018-09-21T19:20:35.582Z,9.17
2018-09-21T19:23:04.713Z,13.63
2018-09-21T19:25:33.603Z,10.50
2018-09-21T19:28:02.444Z,6.40
2018-09-21T19:30:31.290Z,14.60
2018-09-21T19:33:00.164Z,13.00
2018-09-21T19:35:28.917Z,9.47
2018-09-21T19:37:57.650Z,7.63
2018-09-21T19:40:26.494Z,11.27
2018-09-21T19:42:55.192Z,11.93
2018-09-21T19:45:23.716Z,12.73
2018-09-21T19:47:52.083Z,10.97
2018-09-21T19:50:20.666Z,11.27
2018-09-21T19:52:49.197Z,13.20
2018-09-21T19:55:17.720Z,10.83
2018-09-21T19:57:46.236Z,13.97
2018-09-21T20:00:14.740Z,7.87
2018-09-21T20:02:43.268Z,11.70
2018-09-21T20:05:11.823Z,10.10
2018-09-21T20:07:40.299Z,13.43
2018-09-21T20:10:08.892Z,13.50
2018-09-21T20:12:37.497Z,10.83
2018-09-21T20:15:06.136Z,15.03
2018-09-21T20:17:34.660Z,14.53
2018-09-21T20:20:03.167Z,13.20
2018-09-21T20:22:31.711Z,15.10
2018-09-21T20:25:00.205Z,11.70
2018-09-21T20:27:28.709Z,17.03
2018-09-21T20:30:02.580Z,8.80
2018-09-21T20:32:36.333Z,15.83
2018-09-21T20:35:04.926Z,16.60
2018-09-21T20:37:33.458Z,12.27
2018-09-21T20:40:01.930Z,11.10
2018-09-21T20:42:30.445Z,8.93
2018-09-21T20:44:58.966Z,14.37
2018-09-21T20:47:27.440Z,15.10
2018-09-21T20:49:55.976Z,11.63
2018-09-21T20:52:24.510Z,11.83
2018-09-21T20:54:53.023Z,11.90
2018-09-21T20:57:21.513Z,10.43
2018-09-21T20:59:50.030Z,17.23
2018-09-21T21:02:18.561Z,13.20
2018-09-21T21:04:47.087Z,8.43
2018-09-21T21:07:15.595Z,9.57
2018-09-21T21:09:44.202Z,15.23
2018-09-21T21:12:12.704Z,14.33
2018-09-21T21:14:41.412Z,12.17
2018-09-21T21:17:09.941Z,9.33
2018-09-21T21:19:38.881Z,14.57
2018-09-21T21:22:07.440Z,9.40
2018-09-21T21:24:36.045Z,5.33
2018-09-21T21:27:04.585Z,7.43
2018-09-21T21:29:33.274Z,7.37
2018-09-21T21:32:01.769Z,3.13
2018-09-21T21:34:30.292Z,5.50
2018-09-21T21:36:58.738Z,4.27
2018-09-21T21:39:27.370Z,7.10
2018-09-21T21:41:55.933Z,11.07
2018-09-21T21:44:24.425Z,9.80
2018-09-21T21:46:52.964Z,10.60
2018-09-21T21:49:21.496Z,7.73
2018-09-21T21:51:49.998Z,9.33
2018-09-21T21:54:18.486Z,7.30
2018-09-21T21:56:47.037Z,10.27
2018-09-21T21:59:15.715Z,12.27
2018-09-21T22:01:45.850Z,10.53
2018-09-21T22:04:15.385Z,10.27
2018-09-21T22:06:43.989Z,11.77
2018-09-21T22:09:12.931Z,10.90
2018-09-21T22:11:46.841Z,12.70
2018-09-21T22:14:16.561Z,9.23
2018-09-21T22:16:45.077Z,15.57
2018-09-21T22:19:13.622Z,12.63
2018-09-21T22:21:42.150Z,12.20
2018-09-21T22:24:10.778Z,12.13
2018-09-21T22:26:39.354Z,9.77
2018-09-21T22:29:07.854Z,10.23
2018-09-21T22:31:36.399Z,14.47
2018-09-21T22:34:04.989Z,12.60
2018-09-21T22:36:33.464Z,7.97
2018-09-21T22:39:01.968Z,7.83
2018-09-21T22:41:30.489Z,6.37
2018-09-21T22:43:58.984Z,9.40
2018-09-21T22:46:27.517Z,5.90
2018-09-21T22:48:56.734Z,7.70
2018-09-21T22:51:26.121Z,5.70
2018-09-21T22:53:54.615Z,4.13
2018-09-21T22:56:23.127Z,4.20
2018-09-21T22:58:51.638Z,5.67
2018-09-21T23:01:20.153Z,4.23
2018-09-21T23:03:48.650Z,4.93
2018-09-21T23:06:17.172Z,4.87
2018-09-21T23:09:02.630Z,9.40
2018-09-21T23:11:31.210Z,6.10
2018-09-21T23:13:59.708Z,7.80
2018-09-21T23:16:28.229Z,8.10
2018-09-21T23:18:56.760Z,7.53
2018-09-21T23:21:25.316Z,6.37
2018-09-21T23:23:53.905Z,7.43
2018-09-21T23:26:22.409Z,7.37
2018-09-21T23:28:50.973Z,5.10
2018-09-21T23:31:19.643Z,6.80
2018-09-21T23:33:48.238Z,3.07
2018-09-21T23:36:17.024Z,5.50
2018-09-21T23:38:45.591Z,9.00
2018-09-21T23:41:14.179Z,4.30
2018-09-21T23:43:42.751Z,5.33
2018-09-21T23:46:11.332Z,4.83
2018-09-21T23:48:39.942Z,3.83
2018-09-21T23:51:09.460Z,5.80
2018-09-21T23:53:38.380Z,3.63
2018-09-21T23:56:07.428Z,6.70
2018-09-21T23:58:35.968Z,2.57
